Time;durP1;ratioP1;P1;durP2;ratioP2;P2;SDS_P1;SDS_P2;PMS_P1;PMS_P2;Temp;Humidity;BMP_temperature;BMP_pressure;BME280_temperature;BME280_humidity;BME280_pressure;Samples;Min_cycle;Max_cycle;Signal;HPM_P1;HPM_P2
2021/10/13 00:00:07;;;;;;;9.40;1.88;;;8.60;99.90;;;;;;5094019;28;20537;-70
2021/10/13 00:02:32;;;;;;;5.15;1.48;;;8.60;99.90;;;;;;5093532;28;20039;-70
2021/10/13 00:04:58;;;;;;;6.78;1.50;;;8.60;99.90;;;;;;5094510;28;20482;-70
2021/10/13 00:07:23;;;;;;;10.25;1.38;;;8.60;99.90;;;;;;5094521;28;20408;-70
2021/10/13 00:09:49;;;;;;;7.30;1.48;;;8.60;99.90;;;;;;5093866;28;20039;-70
2021/10/13 00:12:14;;;;;;;5.65;1.25;;;8.60;99.90;;;;;;5092900;28;20097;-70
2021/10/13 00:14:40;;;;;;;7.28;1.60;;;8.70;99.90;;;;;;5093225;28;20047;-70
2021/10/13 00:17:06;;;;;;;5.95;1.35;;;8.70;99.90;;;;;;5093861;28;20508;-70
2021/10/13 00:19:32;;;;;;;7.43;1.67;;;8.80;99.90;;;;;;5093899;28;20032;-70
2021/10/13 00:21:58;;;;;;;4.95;1.33;;;8.80;99.90;;;;;;5094391;28;20082;-70
2021/10/13 00:24:24;;;;;;;5.28;1.30;;;8.80;99.90;;;;;;5094378;28;20036;-70
2021/10/13 00:26:50;;;;;;;5.35;1.50;;;8.90;99.90;;;;;;5094090;28;20032;-70
2021/10/13 00:29:15;;;;;;;7.03;1.65;;;8.90;99.90;;;;;;5093592;28;20046;-70
2021/10/13 00:31:41;;;;;;;8.90;1.80;;;9.00;99.90;;;;;;5093762;28;20047;-70
2021/10/13 00:34:06;;;;;;;9.57;1.60;;;9.00;99.90;;;;;;5093881;28;20042;-70
2021/10/13 00:36:32;;;;;;;6.50;1.70;;;9.00;99.90;;;;;;5093785;28;20488;-70
2021/10/13 00:38:58;;;;;;;8.73;1.65;;;9.00;99.90;;;;;;5093365;28;20119;-70
2021/10/13 00:41:23;;;;;;;5.07;2.00;;;9.00;99.90;;;;;;5093374;28;20078;-70
2021/10/13 00:43:49;;;;;;;5.28;1.48;;;9.10;99.90;;;;;;5093663;28;20032;-70
2021/10/13 00:46:15;;;;;;;8.23;1.60;;;9.10;99.90;;;;;;5093930;28;20039;-70
2021/10/13 00:48:40;;;;;;;9.80;2.03;;;9.10;99.90;;;;;;5093298;28;20055;-70
2021/10/13 00:51:06;;;;;;;9.25;2.00;;;9.10;99.90;;;;;;5093766;28;20036;-70
2021/10/13 00:53:33;;;;;;;9.82;2.88;;;9.10;99.90;;;;;;5094044;28;20068;-70
2021/10/13 00:55:58;;;;;;;5.70;1.98;;;9.10;99.90;;;;;;5093790;28;20515;-70
2021/10/13 00:58:24;;;;;;;8.77;1.45;;;9.10;99.90;;;;;;5093616;28;20048;-70
2021/10/13 01:01:02;;;;;;;4.35;1.50;;;9.10;99.90;;;;;;5093065;28;20032;-70
2021/10/13 01:03:48;;;;;;;7.30;1.30;;;9.10;99.90;;;;;;5093593;28;20036;-70
2021/10/13 01:06:43;;;;;;;8.32;1.45;;;9.10;99.90;;;;;;5093449;28;20496;-70
2021/10/13 01:09:22;;;;;;;3.33;1.42;;;9.10;99.90;;;;;;5093045;28;20040;-70
2021/10/13 01:12:00;;;;;;;7.72;1.70;;;9.10;99.90;;;;;;5093127;28;20489;-70
2021/10/13 01:15:00;;;;;;;4.60;1.50;;;9.10;99.90;;;;;;5093868;28;20040;-70
2021/10/13 01:17:35;;;;;;;10.73;1.50;;;9.10;99.90;;;;;;5093306;28;20046;-70
2021/10/13 01:20:19;;;;;;;5.95;2.88;;;9.10;99.90;;;;;;5093317;28;20040;-70
2021/10/13 01:23:00;;;;;;;6.93;1.50;;;9.10;99.90;;;;;;5093417;28;20044;-70
2021/10/13 01:25:46;;;;;;;7.70;1.80;;;9.10;99.90;;;;;;5092254;28;20097;-70
2021/10/13 01:28:14;;;;;;;2.65;1.00;;;9.10;99.90;;;;;;5092169;28;20048;-70
2021/10/13 01:30:51;;;;;;;4.03;1.25;;;9.10;99.90;;;;;;5092907;28;20128;-70
2021/10/13 01:33:24;;;;;;;11.35;1.95;;;9.20;99.90;;;;;;5093600;28;20150;-70
2021/10/13 01:35:53;;;;;;;8.07;1.60;;;9.20;99.90;;;;;;5093222;28;20399;-70
2021/10/13 01:38:22;;;;;;;4.28;1.40;;;9.20;99.90;;;;;;5093215;28;20072;-70
2021/10/13 01:40:51;;;;;;;6.50;2.08;;;9.20;99.90;;;;;;5093385;28;20036;-70
2021/10/13 01:43:20;;;;;;;9.32;1.60;;;9.20;99.90;;;;;;5092011;28;20044;-70
2021/10/13 01:45:49;;;;;;;4.57;2.22;;;9.20;99.90;;;;;;5092415;28;20048;-70
2021/10/13 01:48:17;;;;;;;6.30;1.35;;;9.20;99.90;;;;;;5093622;28;20055;-70
2021/10/13 01:50:46;;;;;;;5.57;1.73;;;9.20;99.90;;;;;;5092518;28;20111;-70
2021/10/13 01:53:14;;;;;;;6.38;1.90;;;9.20;99.90;;;;;;5095495;28;20468;-70
2021/10/13 01:55:42;;;;;;;7.70;1.40;;;9.20;99.90;;;;;;5095589;28;20036;-70
2021/10/13 01:58:09;;;;;;;5.22;1.10;;;9.20;99.90;;;;;;5096870;28;20051;-70
2021/10/13 02:00:36;;;;;;;5.97;1.90;;;9.30;99.90;;;;;;5096773;28;20097;-70
2021/10/13 02:03:04;;;;;;;4.75;1.30;;;9.30;99.90;;;;;;5096553;28;20040;-70
2021/10/13 02:05:32;;;;;;;8.38;1.48;;;9.20;99.90;;;;;;5095785;28;20036;-70
2021/10/13 02:07:59;;;;;;;7.82;1.42;;;9.20;99.90;;;;;;5095530;28;20105;-70
2021/10/13 02:10:26;;;;;;;3.03;1.30;;;9.20;99.90;;;;;;5096553;28;20094;-70
2021/10/13 02:12:55;;;;;;;6.43;1.40;;;9.20;99.90;;;;;;5096673;28;20075;-70
2021/10/13 02:15:23;;;;;;;8.48;2.88;;;9.10;99.90;;;;;;5096422;28;20131;-70
2021/10/13 02:17:51;;;;;;;4.50;1.27;;;9.10;99.90;;;;;;5096181;28;20093;-70
2021/10/13 02:20:19;;;;;;;5.85;1.45;;;9.10;99.90;;;;;;5096303;28;20074;-70
2021/10/13 02:22:49;;;;;;;6.28;1.05;;;9.00;99.90;;;;;;5096375;28;20083;-70
2021/10/13 02:25:16;;;;;;;8.90;1.45;;;9.00;99.90;;;;;;5096549;28;20438;-70
2021/10/13 02:28:05;;;;;;;5.47;1.50;;;9.00;99.90;;;;;;5096129;28;20492;-70
2021/10/13 02:30:30;;;;;;;15.82;2.10;;;9.00;99.90;;;;;;5094317;28;20060;-70
2021/10/13 02:32:56;;;;;;;10.35;1.65;;;9.00;99.90;;;;;;5094790;28;20047;-70
2021/10/13 02:35:22;;;;;;;7.45;1.30;;;8.90;99.90;;;;;;5096158;28;20090;-70
2021/10/13 02:37:48;;;;;;;8.48;1.63;;;8.90;99.90;;;;;;5096029;28;20074;-70
2021/10/13 02:40:13;;;;;;;3.90;1.52;;;8.90;99.90;;;;;;5096232;28;20040;-70
2021/10/13 02:42:39;;;;;;;9.55;1.50;;;8.90;99.90;;;;;;5095970;28;20051;-70
2021/10/13 02:45:06;;;;;;;6.85;1.17;;;8.90;99.90;;;;;;5096403;28;20495;-70
2021/10/13 02:47:52;;;;;;;7.90;1.90;;;8.90;99.90;;;;;;5095711;28;20503;-70
2021/10/13 02:50:33;;;;;;;5.20;1.45;;;8.90;99.90;;;;;;5094792;28;20487;-70
2021/10/13 02:53:16;;;;;;;7.65;1.55;;;8.90;99.90;;;;;;5095669;28;20130;-70
2021/10/13 02:55:47;;;;;;;7.63;1.50;;;8.90;99.90;;;;;;5094476;28;20043;-70
2021/10/13 02:58:17;;;;;;;5.80;1.52;;;8.80;99.90;;;;;;5094440;28;20044;-70
2021/10/13 03:00:46;;;;;;;7.28;1.20;;;8.80;99.90;;;;;;5094329;28;20039;-70
2021/10/13 03:03:19;;;;;;;7.22;1.83;;;8.80;99.90;;;;;;5096369;28;20028;-70
2021/10/13 03:05:48;;;;;;;7.85;1.33;;;8.80;99.90;;;;;;5095870;28;20044;-70
2021/10/13 03:08:16;;;;;;;8.27;2.45;;;8.80;99.90;;;;;;5095813;28;20050;-70
2021/10/13 03:10:46;;;;;;;6.93;1.25;;;8.80;99.90;;;;;;5095497;28;20040;-70
2021/10/13 03:13:14;;;;;;;6.03;2.00;;;8.70;99.90;;;;;;5096272;28;20040;-70
2021/10/13 03:15:42;;;;;;;7.70;1.63;;;8.70;99.90;;;;;;5095879;28;20040;-70
2021/10/13 03:18:11;;;;;;;5.15;1.50;;;8.70;99.90;;;;;;5095033;28;20516;-70
2021/10/13 03:20:37;;;;;;;5.18;1.40;;;8.70;99.90;;;;;;5094888;28;20396;-70
2021/10/13 03:23:03;;;;;;;7.05;1.75;;;8.70;99.90;;;;;;5095426;28;20043;-70
2021/10/13 03:25:32;;;;;;;6.20;1.23;;;8.70;99.90;;;;;;5095283;28;20086;-70
2021/10/13 03:28:00;;;;;;;5.43;1.40;;;8.70;99.90;;;;;;5095394;28;20036;-70
2021/10/13 03:30:25;;;;;;;8.05;1.50;;;8.70;99.90;;;;;;5093946;28;20040;-70
2021/10/13 03:32:51;;;;;;;7.43;2.28;;;8.70;99.90;;;;;;5094936;28;20044;-70
2021/10/13 03:35:31;;;;;;;6.10;1.60;;;8.80;99.90;;;;;;5095188;28;20200;-70
2021/10/13 03:37:58;;;;;;;5.57;1.60;;;8.80;99.90;;;;;;5093430;28;20044;-70
2021/10/13 03:40:25;;;;;;;6.63;1.60;;;8.80;99.90;;;;;;5094599;28;20043;-70
2021/10/13 03:42:51;;;;;;;6.13;1.67;;;8.80;99.90;;;;;;5094674;28;20093;-70
2021/10/13 03:45:19;;;;;;;7.80;2.78;;;8.90;99.90;;;;;;5093581;28;20071;-70
2021/10/13 03:47:45;;;;;;;9.25;1.85;;;9.00;99.90;;;;;;5094856;28;20047;-70
2021/10/13 03:50:12;;;;;;;11.23;3.40;;;9.00;99.90;;;;;;5094541;28;20054;-70
2021/10/13 03:52:38;;;;;;;13.20;1.67;;;9.00;99.90;;;;;;5093963;28;20496;-70
2021/10/13 03:55:06;;;;;;;6.97;2.15;;;9.00;99.90;;;;;;5094663;28;20036;-70
2021/10/13 03:57:31;;;;;;;9.25;1.65;;;9.10;99.90;;;;;;5094311;28;20492;-70
2021/10/13 03:59:57;;;;;;;8.82;1.50;;;9.10;99.90;;;;;;5094030;28;20111;-70
2021/10/13 04:02:22;;;;;;;8.32;1.77;;;9.10;99.90;;;;;;5094661;28;20024;-70
2021/10/13 04:04:48;;;;;;;11.27;2.28;;;9.10;99.90;;;;;;5093192;28;20040;-70
2021/10/13 04:07:14;;;;;;;6.15;1.50;;;9.10;99.90;;;;;;5094503;28;20050;-70
2021/10/13 04:09:39;;;;;;;6.43;1.45;;;9.10;99.90;;;;;;5094209;28;20043;-70
2021/10/13 04:12:05;;;;;;;3.92;1.50;;;9.10;99.90;;;;;;5094035;28;20464;-70
2021/10/13 04:14:31;;;;;;;7.35;1.75;;;9.10;99.90;;;;;;5092280;28;20071;-70
2021/10/13 04:16:56;;;;;;;8.05;1.75;;;9.10;99.90;;;;;;5093971;28;20074;-70
2021/10/13 04:19:23;;;;;;;8.65;2.50;;;9.20;99.90;;;;;;5092650;28;20537;-70
2021/10/13 04:21:48;;;;;;;5.22;1.17;;;9.20;99.90;;;;;;5094179;28;20036;-70
2021/10/13 04:24:14;;;;;;;8.98;1.77;;;9.20;99.90;;;;;;5094024;28;20480;-70
2021/10/13 04:26:40;;;;;;;9.88;2.60;;;9.30;99.90;;;;;;5093205;28;20131;-70
2021/10/13 04:29:05;;;;;;;6.90;1.60;;;9.30;99.90;;;;;;5092283;28;20047;-70
2021/10/13 04:31:31;;;;;;;8.50;2.00;;;9.30;99.90;;;;;;5093959;28;20036;-70
2021/10/13 04:33:56;;;;;;;9.18;1.73;;;9.40;99.90;;;;;;5094232;28;20043;-70
2021/10/13 04:36:22;;;;;;;10.48;1.27;;;9.40;99.90;;;;;;5093690;28;20484;-70
2021/10/13 04:38:48;;;;;;;6.80;1.52;;;9.40;99.90;;;;;;5093449;28;20435;-71
2021/10/13 04:41:13;;;;;;;5.65;1.15;;;9.50;99.90;;;;;;5093666;28;20082;-70
2021/10/13 04:43:39;;;;;;;6.32;1.35;;;9.50;99.90;;;;;;5093866;28;20039;-71
2021/10/13 04:46:04;;;;;;;7.05;1.60;;;9.50;99.90;;;;;;5093941;28;20086;-70
2021/10/13 04:48:30;;;;;;;9.75;1.67;;;9.50;99.90;;;;;;5092214;28;20065;-71
2021/10/13 04:50:55;;;;;;;7.78;1.40;;;9.50;99.90;;;;;;5093665;28;20032;-70
2021/10/13 04:53:21;;;;;;;5.47;1.90;;;9.50;99.90;;;;;;5093494;28;20384;-70
2021/10/13 04:55:46;;;;;;;5.95;1.27;;;9.50;99.90;;;;;;5094065;28;20036;-71
2021/10/13 04:58:12;;;;;;;5.93;1.25;;;9.50;99.90;;;;;;5092410;28;20052;-71
2021/10/13 05:00:38;;;;;;;3.97;1.70;;;9.50;99.90;;;;;;5091835;28;20047;-71
2021/10/13 05:03:03;;;;;;;6.35;1.30;;;9.50;99.90;;;;;;5093582;28;20380;-71
2021/10/13 05:05:30;;;;;;;5.75;1.65;;;9.50;99.90;;;;;;5092472;28;20039;-71
2021/10/13 05:07:55;;;;;;;5.93;1.35;;;9.50;99.90;;;;;;5093284;28;20097;-70
2021/10/13 05:10:21;;;;;;;7.88;2.97;;;9.50;99.90;;;;;;5092377;28;20487;-70
2021/10/13 05:12:47;;;;;;;4.78;1.40;;;9.50;99.90;;;;;;5093293;28;20119;-70
2021/10/13 05:15:13;;;;;;;4.30;1.40;;;9.50;99.90;;;;;;5093335;28;20135;-69
2021/10/13 05:17:38;;;;;;;4.70;1.48;;;9.50;99.90;;;;;;5093263;28;20404;-70
2021/10/13 05:20:05;;;;;;;9.52;1.33;;;9.50;99.90;;;;;;5092027;28;20036;-70
2021/10/13 05:22:30;;;;;;;2.75;1.05;;;9.50;99.90;;;;;;5093071;28;20032;-70
2021/10/13 05:24:56;;;;;;;7.60;1.75;;;9.50;99.90;;;;;;5092193;28;20043;-70
2021/10/13 05:27:21;;;;;;;5.90;1.30;;;9.50;99.90;;;;;;5093015;28;20380;-70
2021/10/13 05:29:47;;;;;;;3.42;1.33;;;9.50;99.90;;;;;;5095794;28;20035;-70
2021/10/13 05:32:12;;;;;;;6.57;1.80;;;9.50;99.90;;;;;;5097660;28;20040;-70
2021/10/13 05:34:38;;;;;;;7.07;1.35;;;9.50;99.90;;;;;;5097057;28;20040;-70
2021/10/13 05:37:04;;;;;;;8.25;1.33;;;9.40;99.90;;;;;;5097296;28;20040;-70
2021/10/13 05:39:29;;;;;;;5.40;1.20;;;9.50;99.90;;;;;;5095974;28;20036;-71
2021/10/13 05:41:55;;;;;;;5.53;1.30;;;9.40;99.90;;;;;;5095657;28;20072;-71
2021/10/13 05:44:21;;;;;;;5.82;1.30;;;9.40;99.90;;;;;;5095781;28;20055;-71
2021/10/13 05:46:46;;;;;;;6.38;1.30;;;9.40;99.90;;;;;;5097088;28;20094;-71
2021/10/13 05:49:12;;;;;;;5.90;1.55;;;9.40;99.90;;;;;;5096754;28;20520;-71
2021/10/13 05:51:37;;;;;;;7.20;1.80;;;9.40;99.90;;;;;;5096911;28;20058;-70
2021/10/13 05:54:03;;;;;;;11.35;1.70;;;9.40;99.90;;;;;;5097143;28;20062;-69
2021/10/13 05:56:29;;;;;;;7.13;1.77;;;9.40;99.90;;;;;;5096871;28;20096;-70
2021/10/13 05:58:55;;;;;;;5.35;1.40;;;9.40;99.90;;;;;;5095751;28;20048;-69
2021/10/13 06:01:21;;;;;;;10.45;3.30;;;9.40;99.90;;;;;;5096858;28;20047;-70
2021/10/13 06:03:48;;;;;;;4.15;1.67;;;9.40;99.90;;;;;;5096856;28;20032;-69
2021/10/13 06:06:15;;;;;;;4.75;1.60;;;9.40;99.90;;;;;;5097135;28;20043;-69
2021/10/13 06:08:45;;;;;;;6.35;1.25;;;9.40;99.90;;;;;;5095634;28;20062;-70
2021/10/13 06:11:12;;;;;;;9.23;2.33;;;9.40;99.90;;;;;;5096461;28;20032;-70
2021/10/13 06:13:38;;;;;;;4.38;1.17;;;9.40;99.90;;;;;;5096752;28;20048;-70
2021/10/13 06:16:04;;;;;;;4.45;1.75;;;9.40;99.90;;;;;;5096414;28;20522;-70
2021/10/13 06:18:30;;;;;;;7.60;2.70;;;9.30;99.90;;;;;;5095165;28;20040;-70
2021/10/13 06:20:55;;;;;;;6.75;1.25;;;9.30;99.90;;;;;;5095022;28;20120;-70
2021/10/13 06:23:21;;;;;;;7.45;1.35;;;9.30;99.90;;;;;;5095329;28;20048;-70
2021/10/13 06:25:46;;;;;;;7.80;1.27;;;9.40;99.90;;;;;;5096110;28;20068;-69
2021/10/13 06:28:12;;;;;;;5.13;1.38;;;9.40;99.90;;;;;;5095328;28;20054;-70
2021/10/13 06:30:38;;;;;;;7.07;1.52;;;9.30;99.90;;;;;;5096285;28;20039;-70
2021/10/13 06:33:06;;;;;;;6.05;1.73;;;9.30;99.90;;;;;;5096376;28;20571;-70
2021/10/13 06:35:32;;;;;;;3.45;1.40;;;9.40;99.90;;;;;;5096157;28;20111;-70
2021/10/13 06:37:58;;;;;;;11.38;1.63;;;9.30;99.90;;;;;;5095620;28;20503;-70
2021/10/13 06:40:23;;;;;;;7.78;2.15;;;9.30;99.90;;;;;;5094348;28;20040;-70
2021/10/13 06:42:49;;;;;;;9.52;1.50;;;9.30;99.90;;;;;;5095904;28;20044;-70
2021/10/13 06:45:16;;;;;;;6.57;1.60;;;9.30;99.90;;;;;;5095981;28;20040;-70
2021/10/13 06:47:41;;;;;;;5.35;1.70;;;9.30;99.90;;;;;;5095762;28;20040;-71
2021/10/13 06:50:08;;;;;;;4.75;1.23;;;9.40;99.90;;;;;;5089179;28;20059;-70
2021/10/13 06:52:34;;;;;;;6.40;1.10;;;9.40;99.90;;;;;;5080920;28;20083;-70
2021/10/13 06:55:00;;;;;;;9.50;1.90;;;9.40;99.90;;;;;;5075456;28;20076;-71
2021/10/13 06:57:25;;;;;;;6.18;1.80;;;9.40;99.90;;;;;;5075354;28;20564;-71
2021/10/13 06:59:51;;;;;;;9.13;1.85;;;9.50;99.90;;;;;;5075193;28;20048;-70
2021/10/13 07:02:16;;;;;;;5.72;1.80;;;9.50;99.90;;;;;;5075704;28;20044;-71
2021/10/13 07:04:42;;;;;;;7.28;1.83;;;9.60;99.90;;;;;;5075277;28;20056;-70
2021/10/13 07:07:07;;;;;;;4.63;1.30;;;9.60;99.90;;;;;;5074642;28;20120;-71
2021/10/13 07:09:33;;;;;;;7.53;1.55;;;9.60;99.90;;;;;;5093477;28;20051;-71
2021/10/13 07:11:59;;;;;;;4.97;1.17;;;9.70;99.90;;;;;;5095351;28;20036;-71
2021/10/13 07:14:25;;;;;;;9.85;2.28;;;9.70;99.90;;;;;;5094294;28;20068;-70
2021/10/13 07:16:51;;;;;;;4.28;1.70;;;9.70;99.90;;;;;;5093597;28;20127;-71
2021/10/13 07:19:16;;;;;;;5.38;2.00;;;9.60;99.90;;;;;;5093634;28;20040;-71
2021/10/13 07:21:42;;;;;;;5.50;1.70;;;9.70;99.90;;;;;;5095494;28;20040;-71
2021/10/13 07:24:08;;;;;;;7.18;1.30;;;9.80;99.90;;;;;;5095123;28;20072;-71
2021/10/13 07:26:35;;;;;;;6.13;1.52;;;10.00;99.90;;;;;;5095172;28;20047;-71
2021/10/13 07:29:01;;;;;;;5.07;1.13;;;10.20;99.90;;;;;;5094873;28;20048;-70
2021/10/13 07:31:27;;;;;;;4.25;1.13;;;10.30;99.90;;;;;;5094957;28;20130;-70
2021/10/13 07:33:54;;;;;;;5.10;1.40;;;10.30;99.90;;;;;;5095192;28;20119;-71
2021/10/13 07:36:20;;;;;;;8.82;1.45;;;10.30;99.90;;;;;;5093926;28;20047;-71
2021/10/13 07:38:46;;;;;;;5.97;2.35;;;10.20;99.90;;;;;;5094323;28;20058;-71
2021/10/13 07:41:15;;;;;;;8.75;1.10;;;10.30;99.90;;;;;;5094632;28;20122;-71
2021/10/13 07:43:40;;;;;;;4.35;1.02;;;10.50;99.90;;;;;;5094684;28;20040;-71
2021/10/13 07:46:06;;;;;;;7.53;2.13;;;10.70;99.90;;;;;;5095003;28;20111;-70
2021/10/13 07:48:32;;;;;;;5.88;1.23;;;11.00;99.90;;;;;;5094271;28;20067;-71
2021/10/13 07:50:57;;;;;;;8.15;1.55;;;11.30;99.90;;;;;;5092695;28;20035;-71
2021/10/13 07:53:24;;;;;;;4.93;1.25;;;11.50;99.90;;;;;;5094318;28;20036;-71
2021/10/13 07:55:50;;;;;;;5.07;1.30;;;11.70;99.90;;;;;;5093192;28;20036;-71
2021/10/13 07:58:16;;;;;;;6.28;1.20;;;11.60;99.90;;;;;;5094457;28;20083;-70
2021/10/13 08:00:41;;;;;;;3.70;1.25;;;11.70;99.90;;;;;;5093556;28;20532;-71
2021/10/13 08:03:07;;;;;;;3.30;1.45;;;11.70;99.90;;;;;;5091295;28;20052;-71
2021/10/13 08:05:33;;;;;;;9.88;1.48;;;11.70;99.90;;;;;;5092289;28;20396;-71
2021/10/13 08:07:58;;;;;;;6.28;1.17;;;11.70;99.90;;;;;;5090941;28;20091;-71
2021/10/13 08:10:24;;;;;;;11.57;1.90;;;11.80;99.90;;;;;;5090431;28;20032;-71
2021/10/13 08:12:50;;;;;;;3.42;1.52;;;12.00;99.90;;;;;;5070724;28;20515;-71
2021/10/13 08:15:18;;;;;;;7.53;1.60;;;12.10;99.90;;;;;;5072770;28;20070;-71
2021/10/13 08:17:44;;;;;;;7.40;1.30;;;12.10;99.90;;;;;;5074159;28;20060;-71
2021/10/13 08:20:10;;;;;;;5.28;1.65;;;12.00;99.90;;;;;;5073399;28;20055;-71
2021/10/13 08:22:37;;;;;;;7.03;1.55;;;12.00;99.90;;;;;;5073902;28;20040;-70
2021/10/13 08:25:05;;;;;;;6.00;1.90;;;12.00;99.90;;;;;;5074117;28;20036;-70
2021/10/13 08:27:31;;;;;;;6.35;1.77;;;11.90;99.90;;;;;;5072390;28;20048;-69
2021/10/13 08:29:57;;;;;;;10.23;2.13;;;11.90;99.90;;;;;;5073363;28;20041;-70
2021/10/13 08:32:22;;;;;;;6.47;1.30;;;11.80;99.90;;;;;;5073678;28;20033;-69
2021/10/13 08:34:48;;;;;;;8.40;1.33;;;11.80;99.90;;;;;;5083643;28;20043;-70
2021/10/13 08:37:14;;;;;;;10.27;1.88;;;11.80;99.90;;;;;;5093699;28;20047;-70
2021/10/13 08:39:39;;;;;;;4.25;1.30;;;11.80;99.90;;;;;;5093102;28;20098;-70
2021/10/13 08:42:05;;;;;;;6.03;1.50;;;11.80;99.90;;;;;;5093346;28;20131;-70
2021/10/13 08:44:32;;;;;;;3.78;1.40;;;11.80;99.90;;;;;;5093123;28;20047;-70
2021/10/13 08:46:57;;;;;;;7.50;1.92;;;12.00;99.90;;;;;;5093129;28;20484;-69
2021/10/13 08:49:23;;;;;;;7.78;1.00;;;11.90;99.90;;;;;;5093253;28;20032;-69
2021/10/13 08:51:49;;;;;;;5.22;1.08;;;11.90;99.90;;;;;;5093405;28;20093;-70
2021/10/13 08:54:17;;;;;;;5.50;0.90;;;11.90;99.90;;;;;;5092729;28;20044;-70
2021/10/13 08:56:44;;;;;;;3.38;0.93;;;11.90;99.90;;;;;;5093768;28;20048;-70
2021/10/13 08:59:42;;;;;;;3.95;0.80;;;11.90;99.90;;;;;;5091850;28;20044;-70
2021/10/13 09:02:09;;;;;;;3.78;0.90;;;12.00;99.90;;;;;;5093431;28;20864;-70
2021/10/13 09:04:35;;;;;;;4.05;1.20;;;12.00;99.90;;;;;;5093758;28;20454;-71
2021/10/13 09:07:02;;;;;;;1.88;0.77;;;12.00;99.90;;;;;;5093404;28;20048;-71
2021/10/13 09:09:28;;;;;;;5.90;1.42;;;12.10;99.90;;;;;;5093347;28;20082;-71
2021/10/13 09:11:53;;;;;;;5.93;1.42;;;12.30;99.90;;;;;;5093405;28;20128;-71
2021/10/13 09:14:21;;;;;;;3.67;1.05;;;12.40;99.90;;;;;;5093344;28;20044;-70
2021/10/13 09:17:03;;;;;;;2.85;1.27;;;12.50;99.90;;;;;;5092259;28;20044;-71
2021/10/13 09:19:50;;;;;;;5.78;1.38;;;12.70;99.90;;;;;;5091986;28;20074;-70
2021/10/13 09:22:18;;;;;;;8.15;1.45;;;12.70;99.90;;;;;;5093732;28;20040;-70
2021/10/13 09:24:51;;;;;;;4.45;1.02;;;12.70;99.90;;;;;;5093832;28;20047;-71
2021/10/13 09:27:17;;;;;;;;;;;12.80;99.90;;;;;;5093806;28;20549;-69
2021/10/13 09:29:43;;;;;;;4.75;0.98;;;12.70;99.90;;;;;;5093573;28;19916;-70
2021/10/13 09:32:09;;;;;;;5.30;0.75;;;12.70;99.90;;;;;;5091889;28;20111;-70
2021/10/13 09:34:34;;;;;;;4.28;0.85;;;12.80;99.90;;;;;;5092024;28;20111;-70
2021/10/13 09:37:01;;;;;;;3.92;1.02;;;12.80;99.90;;;;;;5093076;28;20043;-71
2021/10/13 09:39:29;;;;;;;3.85;0.70;;;12.90;99.90;;;;;;5092645;28;20040;-69
2021/10/13 09:42:02;;;;;;;5.00;1.05;;;12.90;99.90;;;;;;5093400;28;20043;-70
2021/10/13 09:44:31;;;;;;;2.80;0.73;;;13.00;99.90;;;;;;5091842;28;20051;-71
2021/10/13 09:46:59;;;;;;;3.47;0.90;;;13.10;99.90;;;;;;5093907;28;20095;-71
2021/10/13 09:49:31;;;;;;;5.18;1.38;;;13.20;99.90;;;;;;5092794;28;20044;-71
2021/10/13 09:52:26;;;;;;;2.13;0.68;;;13.30;99.90;;;;;;5093076;28;20051;-71
2021/10/13 09:55:02;;;;;;;1.85;0.68;;;13.30;99.90;;;;;;5091684;28;20048;-71
2021/10/13 09:57:31;;;;;;;2.88;0.52;;;13.10;99.90;;;;;;5092979;28;20044;-71
2021/10/13 09:59:57;;;;;;;2.03;0.30;;;12.90;99.90;;;;;;5092604;28;20035;-70
2021/10/13 10:02:25;;;;;;;1.23;0.30;;;12.80;99.90;;;;;;5091432;28;20048;-71
2021/10/13 10:04:52;;;;;;;2.20;1.30;;;12.60;99.90;;;;;;5093016;28;20241;-71
2021/10/13 10:07:21;;;;;;;2.90;0.60;;;12.50;99.90;;;;;;5091472;28;20123;-71
2021/10/13 10:10:14;;;;;;;1.92;0.50;;;12.40;99.90;;;;;;5093074;28;20036;-71
2021/10/13 10:12:59;;;;;;;2.60;0.50;;;12.30;99.90;;;;;;5092278;28;20046;-70
2021/10/13 10:15:30;;;;;;;2.85;0.50;;;12.20;99.90;;;;;;5096885;28;20048;-69
2021/10/13 10:17:57;;;;;;;1.88;0.50;;;12.10;99.90;;;;;;5096421;28;20510;-69
2021/10/13 10:20:34;;;;;;;2.28;0.50;;;12.00;99.90;;;;;;5096316;28;20039;-68
2021/10/13 10:23:00;;;;;;;1.60;0.30;;;12.00;99.90;;;;;;5096464;28;20113;-69
2021/10/13 10:25:35;;;;;;;3.38;0.40;;;12.00;99.90;;;;;;5096245;28;20076;-68
2021/10/13 10:28:01;;;;;;;1.88;0.50;;;12.00;99.90;;;;;;5096487;28;20096;-69
2021/10/13 10:30:27;;;;;;;3.08;0.40;;;12.10;99.90;;;;;;5094796;28;20050;-68
2021/10/13 10:32:55;;;;;;;2.22;0.40;;;12.20;99.90;;;;;;5096046;28;20093;-68
2021/10/13 10:35:21;;;;;;;1.17;0.30;;;12.30;99.90;;;;;;5096298;28;20522;-69
2021/10/13 10:37:48;;;;;;;3.63;0.40;;;12.40;99.90;;;;;;5096459;28;20036;-69
2021/10/13 10:40:37;;;;;;;2.15;0.60;;;12.60;99.90;;;;;;5095941;28;20036;-69
2021/10/13 10:43:18;;;;;;;3.95;0.75;;;12.80;99.90;;;;;;5095113;28;20044;-69
2021/10/13 10:45:57;;;;;;;2.47;0.80;;;12.90;99.90;;;;;;5096485;28;20043;-69
2021/10/13 10:48:42;;;;;;;1.88;0.50;;;12.90;99.90;;;;;;5096574;28;20040;-68
2021/10/13 10:51:08;;;;;;;1.88;0.50;;;12.90;99.90;;;;;;5095964;28;20043;-69
2021/10/13 10:53:39;;;;;;;2.83;0.73;;;12.90;99.90;;;;;;5096062;28;20375;-70
2021/10/13 10:56:16;;;;;;;2.28;0.30;;;12.90;99.90;;;;;;5096280;28;20043;-70
2021/10/13 10:59:02;;;;;;;3.92;0.50;;;13.00;99.90;;;;;;5095572;28;20534;-71
2021/10/13 11:01:28;;;;;;;2.33;0.50;;;13.10;99.90;;;;;;5095723;28;20044;-69
2021/10/13 11:03:54;;;;;;;3.13;0.50;;;13.20;99.90;;;;;;5094361;28;20042;-70
2021/10/13 11:06:24;;;;;;;4.75;1.17;;;13.20;99.90;;;;;;5095716;28;20549;-70
2021/10/13 11:09:01;;;;;;;5.82;0.75;;;13.30;99.90;;;;;;5094032;28;20441;-70
2021/10/13 11:11:31;;;;;;;2.20;0.40;;;13.30;99.90;;;;;;5095340;28;20039;-70
2021/10/13 11:14:24;;;;;;;3.50;0.60;;;13.40;99.90;;;;;;5095616;28;20032;-70
2021/10/13 11:16:58;;;;;;;14.68;2.55;;;13.50;99.90;;;;;;5094032;28;20404;-69
2021/10/13 11:19:32;;;;;;;2.35;0.38;;;13.60;99.90;;;;;;5093592;28;20079;-70
2021/10/13 11:22:01;;;;;;;2.92;0.60;;;13.60;99.90;;;;;;5094129;28;20097;-70
2021/10/13 11:24:27;;;;;;;3.35;1.00;;;13.70;99.90;;;;;;5093191;28;20039;-70
2021/10/13 11:26:52;;;;;;;4.82;0.80;;;13.90;99.90;;;;;;5095238;28;20357;-70
2021/10/13 11:29:23;;;;;;;1.60;0.43;;;13.90;99.90;;;;;;5093225;28;20052;-70
2021/10/13 11:31:49;;;;;;;5.10;0.73;;;13.90;99.90;;;;;;5095212;28;20131;-70
2021/10/13 11:34:18;;;;;;;5.07;0.60;;;13.90;99.90;;;;;;5094854;28;20062;-70
2021/10/13 11:36:52;;;;;;;5.03;0.70;;;13.80;99.90;;;;;;5094978;28;20048;-70
2021/10/13 11:39:23;;;;;;;3.22;0.80;;;13.30;99.90;;;;;;5094770;28;20085;-70
2021/10/13 11:41:49;;;;;;;4.55;0.75;;;13.00;99.90;;;;;;5095105;28;20114;-70
2021/10/13 11:44:20;;;;;;;4.65;0.70;;;12.90;99.90;;;;;;5095226;28;20135;-70
2021/10/13 11:47:06;;;;;;;6.72;0.98;;;12.70;99.90;;;;;;5093845;28;20051;-70
2021/10/13 11:49:50;;;;;;;6.47;1.00;;;12.60;99.90;;;;;;5094806;28;20047;-70
2021/10/13 11:52:17;;;;;;;8.27;1.90;;;12.50;99.90;;;;;;5093557;28;20044;-70
2021/10/13 11:54:43;;;;;;;7.13;1.95;;;12.50;99.90;;;;;;5093527;28;20097;-70
2021/10/13 11:57:09;;;;;;;6.40;0.85;;;12.40;99.90;;;;;;5093442;28;20056;-71
2021/10/13 11:59:36;;;;;;;10.18;1.40;;;12.50;99.90;;;;;;5094244;28;20032;-69
2021/10/13 12:02:18;;;;;;;5.30;1.20;;;12.50;99.90;;;;;;5094560;28;20040;-70
2021/10/13 12:04:52;;;;;;;6.75;1.15;;;12.50;99.90;;;;;;5094382;28;20044;-71
2021/10/13 12:07:23;;;;;;;5.05;1.10;;;12.60;99.90;;;;;;5093134;28;20613;-70
2021/10/13 12:10:00;;;;;;;6.47;0.98;;;12.60;99.90;;;;;;5094253;28;20055;-70
2021/10/13 12:12:27;;;;;;;7.03;0.77;;;12.60;99.90;;;;;;5094538;28;20488;-70
2021/10/13 12:14:52;;;;;;;2.30;0.80;;;12.70;99.90;;;;;;5093327;28;20507;-70
2021/10/13 12:17:26;;;;;;;5.40;0.90;;;12.70;99.90;;;;;;5093866;28;20044;-70
2021/10/13 12:19:53;;;;;;;4.78;1.13;;;12.70;99.90;;;;;;5092657;28;20036;-70
2021/10/13 12:22:19;;;;;;;6.38;0.98;;;12.80;99.90;;;;;;5094319;28;20040;-71
2021/10/13 12:24:44;;;;;;;5.10;1.85;;;12.80;99.90;;;;;;5094035;28;20506;-71
2021/10/13 12:27:11;;;;;;;3.28;1.42;;;12.90;99.90;;;;;;5093777;28;20518;-71
2021/10/13 12:29:43;;;;;;;38.90;4.00;;;13.00;99.90;;;;;;5093636;28;20119;-70
2021/10/13 12:32:19;;;;;;;4.47;0.98;;;13.00;99.90;;;;;;5092962;28;20391;-71
2021/10/13 12:34:45;;;;;;;9.18;1.10;;;13.10;99.90;;;;;;5094199;28;20495;-70
2021/10/13 12:37:11;;;;;;;5.18;0.85;;;13.10;99.90;;;;;;5093758;28;20040;-70
2021/10/13 12:39:37;;;;;;;5.47;0.70;;;13.10;99.90;;;;;;5093858;28;20032;-71
2021/10/13 12:42:05;;;;;;;4.82;1.70;;;13.10;99.90;;;;;;5094247;28;20036;-70
2021/10/13 12:44:31;;;;;;;2.95;0.90;;;13.10;99.90;;;;;;5093733;28;20071;-70
2021/10/13 12:46:59;;;;;;;5.85;1.98;;;13.10;99.90;;;;;;5094181;28;20519;-71
2021/10/13 12:49:33;;;;;;;3.28;1.27;;;13.20;99.90;;;;;;5093625;28;20040;-71
2021/10/13 12:52:00;;;;;;;5.82;0.90;;;13.20;99.90;;;;;;5093631;28;20047;-70
2021/10/13 12:54:31;;;;;;;3.88;1.05;;;13.20;99.90;;;;;;5093641;28;20115;-69
2021/10/13 12:56:58;;;;;;;5.47;1.30;;;13.30;99.90;;;;;;5093490;28;20035;-70
2021/10/13 12:59:24;;;;;;;4.72;1.08;;;13.40;99.90;;;;;;5091757;28;20076;-70